Time;durP1;ratioP1;P1;durP2;ratioP2;P2;SDS_P1;SDS_P2;PMS_P1;PMS_P2;Temp;Humidity;BMP_temperature;BMP_pressure;BME280_temperature;BME280_humidity;BME280_pressure;Samples;Min_cycle;Max_cycle;Signal;HPM_P1;HPM_P2
2023/04/03 00:01:14;;;;;;;0.40;0.40;;;;;;;;;;5057051;28;20029;-41
2023/04/03 00:03:41;;;;;;;0.63;0.63;;;;;;;;;;5061311;28;20029;-41
2023/04/03 00:06:08;;;;;;;0.38;0.30;;;;;;;;;;5050795;28;20032;-41
2023/04/03 00:08:34;;;;;;;0.50;0.50;;;;;;;;;;5044035;28;20052;-41
2023/04/03 00:11:00;;;;;;;1.05;0.40;;;;;;;;;;5041355;28;20033;-42
2023/04/03 00:13:26;;;;;;;0.47;0.40;;;;;;;;;;5047746;28;20056;-45
2023/04/03 00:15:51;;;;;;;0.30;0.30;;;;;;;;;;5043345;28;20053;-47
2023/04/03 00:18:17;;;;;;;0.65;0.60;;;;;;;;;;5045334;28;20720;-44
2023/04/03 00:20:42;;;;;;;0.30;0.30;;;;;;;;;;5044939;28;20095;-44
2023/04/03 00:23:08;;;;;;;0.40;0.40;;;;;;;;;;5044244;28;20040;-41
2023/04/03 00:25:34;;;;;;;0.73;0.40;;;;;;;;;;5045167;28;20041;-44
2023/04/03 00:27:59;;;;;;;0.30;0.30;;;;;;;;;;5045124;28;20477;-41
2023/04/03 00:30:25;;;;;;;0.30;0.30;;;;;;;;;;5045323;28;20920;-44
2023/04/03 00:32:52;;;;;;;0.70;0.30;;;;;;;;;;5044036;28;20095;-42
2023/04/03 00:35:18;;;;;;;0.40;0.32;;;;;;;;;;5044899;28;20025;-43
2023/04/03 00:37:44;;;;;;;0.20;0.20;;;;;;;;;;5047193;28;20040;-43
2023/04/03 00:40:11;;;;;;;0.30;0.30;;;;;;;;;;5043624;28;20025;-42
2023/04/03 00:42:38;;;;;;;0.20;0.20;;;;;;;;;;5040852;28;20029;-42
2023/04/03 00:45:04;;;;;;;1.00;0.30;;;;;;;;;;5042623;28;20112;-41
2023/04/03 00:47:30;;;;;;;0.20;0.20;;;;;;;;;;5045038;28;20159;-44
2023/04/03 00:49:57;;;;;;;0.20;0.20;;;;;;;;;;5044038;28;20036;-41
2023/04/03 00:52:27;;;;;;;0.28;0.28;;;;;;;;;;5036641;28;20048;-48
2023/04/03 00:54:56;;;;;;;0.30;0.30;;;;;;;;;;5043942;28;20061;-45
2023/04/03 00:57:22;;;;;;;2.10;0.30;;;;;;;;;;5039505;28;20045;-43
2023/04/03 00:59:56;;;;;;;0.20;0.20;;;;;;;;;;5047641;28;20029;-44
2023/04/03 01:02:21;;;;;;;2.78;0.55;;;;;;;;;;5037343;28;20174;-49
2023/04/03 01:04:47;;;;;;;0.90;0.30;;;;;;;;;;5041060;28;20026;-41
2023/04/03 01:07:15;;;;;;;4.13;0.60;;;;;;;;;;5053613;28;20026;-41
2023/04/03 01:09:41;;;;;;;0.30;0.30;;;;;;;;;;5055875;28;20305;-42
2023/04/03 01:12:22;;;;;;;0.50;0.50;;;;;;;;;;5058433;28;20110;-41
2023/04/03 01:14:50;;;;;;;0.50;0.50;;;;;;;;;;5060536;28;20405;-43
2023/04/03 01:17:34;;;;;;;0.17;0.17;;;;;;;;;;5039561;28;20175;-41
2023/04/03 01:20:31;;;;;;;0.50;0.50;;;;;;;;;;5034839;28;20474;-40
2023/04/03 01:23:08;;;;;;;0.50;0.50;;;;;;;;;;5042928;28;20033;-43
2023/04/03 01:25:50;;;;;;;0.40;0.40;;;;;;;;;;5043250;28;20444;-41
2023/04/03 01:28:20;;;;;;;0.30;0.30;;;;;;;;;;5042386;28;20987;-42
2023/04/03 01:30:51;;;;;;;0.30;0.30;;;;;;;;;;5037629;28;20041;-44
2023/04/03 01:33:16;;;;;;;0.50;0.50;;;;;;;;;;5035829;28;20029;-45
2023/04/03 01:35:41;;;;;;;0.55;0.55;;;;;;;;;;5039287;28;20151;-46
2023/04/03 01:38:07;;;;;;;0.40;0.40;;;;;;;;;;5036064;28;20041;-45
2023/04/03 01:40:32;;;;;;;0.50;0.50;;;;;;;;;;5041530;28;20049;-41
2023/04/03 01:42:58;;;;;;;0.40;0.40;;;;;;;;;;5040354;28;20025;-42
2023/04/03 01:45:23;;;;;;;0.40;0.40;;;;;;;;;;5044906;28;20064;-41
2023/04/03 01:47:48;;;;;;;0.80;0.50;;;;;;;;;;5046508;28;20024;-43
2023/04/03 01:50:14;;;;;;;0.50;0.50;;;;;;;;;;5046450;28;20105;-41
2023/04/03 01:52:39;;;;;;;0.50;0.50;;;;;;;;;;5048384;28;20087;-42
2023/04/03 01:55:05;;;;;;;0.60;0.60;;;;;;;;;;5044348;28;20025;-43
2023/04/03 01:57:31;;;;;;;0.40;0.40;;;;;;;;;;5043607;28;20041;-43
2023/04/03 01:59:56;;;;;;;0.65;0.40;;;;;;;;;;5045306;28;20025;-45
2023/04/03 02:02:21;;;;;;;0.40;0.40;;;;;;;;;;5064174;28;20697;-42
2023/04/03 02:04:47;;;;;;;0.40;0.40;;;;;;;;;;5065539;28;20052;-42
2023/04/03 02:07:12;;;;;;;0.43;0.43;;;;;;;;;;5051540;28;20041;-42
2023/04/03 02:09:37;;;;;;;0.60;0.60;;;;;;;;;;5047904;28;20067;-41
2023/04/03 02:12:03;;;;;;;0.60;0.60;;;;;;;;;;5048587;28;20113;-42
2023/04/03 02:14:28;;;;;;;2.90;0.50;;;;;;;;;;5049347;28;20041;-41
2023/04/03 02:16:54;;;;;;;0.60;0.60;;;;;;;;;;5047375;28;20138;-41
2023/04/03 02:19:19;;;;;;;0.50;0.50;;;;;;;;;;5048021;28;20584;-44
2023/04/03 02:21:44;;;;;;;0.50;0.50;;;;;;;;;;5047716;28;20036;-42
2023/04/03 02:24:10;;;;;;;0.65;0.60;;;;;;;;;;5046059;28;20386;-46
2023/04/03 02:26:35;;;;;;;0.95;0.60;;;;;;;;;;5059740;28;20040;-42
2023/04/03 02:29:01;;;;;;;0.60;0.60;;;;;;;;;;5057638;28;20389;-45
2023/04/03 02:31:26;;;;;;;0.50;0.50;;;;;;;;;;5050421;28;20034;-47
2023/04/03 02:33:51;;;;;;;2.28;0.50;;;;;;;;;;5043052;28;20044;-45
2023/04/03 02:36:17;;;;;;;0.50;0.50;;;;;;;;;;5048584;28;20045;-45
2023/04/03 02:38:43;;;;;;;0.60;0.60;;;;;;;;;;5066332;28;20020;-41
2023/04/03 02:41:11;;;;;;;0.52;0.50;;;;;;;;;;5062333;28;20118;-41
2023/04/03 02:43:37;;;;;;;0.77;0.70;;;;;;;;;;5057762;28;20040;-43
2023/04/03 02:46:03;;;;;;;0.50;0.50;;;;;;;;;;5061502;28;20139;-42
2023/04/03 02:48:28;;;;;;;0.50;0.50;;;;;;;;;;5064096;28;20120;-40
2023/04/03 02:50:54;;;;;;;0.63;0.63;;;;;;;;;;5064721;28;20119;-41
2023/04/03 02:53:20;;;;;;;0.50;0.50;;;;;;;;;;5056469;28;20116;-42
2023/04/03 02:55:45;;;;;;;0.60;0.60;;;;;;;;;;5059487;28;20197;-41
2023/04/03 02:58:11;;;;;;;1.08;0.60;;;;;;;;;;5058311;28;20429;-41
2023/04/03 03:00:37;;;;;;;0.50;0.50;;;;;;;;;;5057637;28;20087;-42
2023/04/03 03:03:03;;;;;;;0.55;0.55;;;;;;;;;;5062791;28;20512;-43
2023/04/03 03:05:28;;;;;;;0.55;0.55;;;;;;;;;;5056494;28;20064;-42
2023/04/03 03:07:55;;;;;;;0.50;0.50;;;;;;;;;;5064373;28;20469;-41
2023/04/03 03:10:21;;;;;;;0.95;0.68;;;;;;;;;;5061952;28;20062;-41
2023/04/03 03:12:47;;;;;;;0.60;0.50;;;;;;;;;;5063112;28;20041;-41
2023/04/03 03:15:12;;;;;;;1.05;0.80;;;;;;;;;;5063160;28;20131;-43
2023/04/03 03:17:37;;;;;;;0.65;0.65;;;;;;;;;;5063134;28;20473;-42
2023/04/03 03:20:04;;;;;;;0.60;0.60;;;;;;;;;;5061373;28;20033;-42
2023/04/03 03:22:30;;;;;;;0.75;0.75;;;;;;;;;;5062021;28;20120;-41
2023/04/03 03:24:55;;;;;;;0.82;0.70;;;;;;;;;;5064770;28;20881;-41
2023/04/03 03:27:21;;;;;;;2.10;0.52;;;;;;;;;;5060675;28;20041;-45
2023/04/03 03:29:46;;;;;;;0.60;0.60;;;;;;;;;;5057370;28;20381;-42
2023/04/03 03:32:12;;;;;;;0.82;0.82;;;;;;;;;;5054953;28;20179;-43
2023/04/03 03:34:37;;;;;;;0.80;0.80;;;;;;;;;;5063947;28;20154;-44
2023/04/03 03:37:03;;;;;;;0.70;0.70;;;;;;;;;;5047141;28;20033;-42
2023/04/03 03:39:28;;;;;;;0.68;0.68;;;;;;;;;;5047021;28;20064;-42
2023/04/03 03:41:54;;;;;;;1.00;0.77;;;;;;;;;;5047570;28;20068;-41
2023/04/03 03:44:20;;;;;;;3.22;0.77;;;;;;;;;;5044362;28;20037;-41
2023/04/03 03:46:45;;;;;;;2.45;0.80;;;;;;;;;;5045246;28;20037;-42
2023/04/03 03:49:11;;;;;;;0.63;0.63;;;;;;;;;;5048193;28;20032;-42
2023/04/03 03:51:37;;;;;;;1.20;0.70;;;;;;;;;;5046953;28;20041;-45
2023/04/03 03:54:03;;;;;;;0.60;0.60;;;;;;;;;;5045402;28;20036;-43
2023/04/03 03:56:29;;;;;;;0.60;0.60;;;;;;;;;;5045189;28;20048;-41
2023/04/03 03:58:56;;;;;;;0.60;0.60;;;;;;;;;;5040552;28;20164;-43
2023/04/03 04:01:22;;;;;;;1.35;0.70;;;;;;;;;;5059499;28;20406;-41
2023/04/03 04:03:47;;;;;;;0.77;0.77;;;;;;;;;;5042990;28;20032;-41
2023/04/03 04:06:13;;;;;;;0.70;0.70;;;;;;;;;;5042415;28;20041;-41
2023/04/03 04:08:38;;;;;;;0.88;0.88;;;;;;;;;;5046862;28;20033;-43
2023/04/03 04:11:04;;;;;;;0.90;0.90;;;;;;;;;;5043506;28;20401;-41
2023/04/03 04:13:29;;;;;;;1.20;1.10;;;;;;;;;;5046188;28;20397;-44
2023/04/03 04:15:54;;;;;;;0.75;0.75;;;;;;;;;;5045915;28;20059;-45
2023/04/03 04:18:21;;;;;;;0.50;0.50;;;;;;;;;;5045763;28;20024;-41
2023/04/03 04:20:46;;;;;;;0.65;0.65;;;;;;;;;;5045795;28;20159;-42
2023/04/03 04:23:12;;;;;;;0.55;0.55;;;;;;;;;;5045316;28;20526;-41
2023/04/03 04:25:37;;;;;;;0.50;0.50;;;;;;;;;;5044579;28;20419;-42
2023/04/03 04:28:03;;;;;;;0.60;0.60;;;;;;;;;;5038945;28;20059;-41
2023/04/03 04:30:28;;;;;;;0.47;0.47;;;;;;;;;;5042692;28;20044;-42
2023/04/03 04:32:54;;;;;;;0.85;0.82;;;;;;;;;;5030975;28;20502;-41
2023/04/03 04:35:19;;;;;;;3.20;0.60;;;;;;;;;;5038080;28;20060;-45
2023/04/03 04:37:45;;;;;;;0.63;0.50;;;;;;;;;;5041735;28;20036;-44
2023/04/03 04:40:11;;;;;;;0.60;0.60;;;;;;;;;;5042865;28;20083;-46
2023/04/03 04:42:36;;;;;;;0.40;0.40;;;;;;;;;;5059510;28;20033;-41
2023/04/03 04:45:02;;;;;;;0.40;0.40;;;;;;;;;;5056256;28;20141;-41
2023/04/03 04:47:28;;;;;;;2.30;0.57;;;;;;;;;;5035567;28;20018;-42
2023/04/03 04:49:54;;;;;;;0.68;0.68;;;;;;;;;;5039533;28;20147;-42
2023/04/03 04:52:20;;;;;;;1.13;0.60;;;;;;;;;;5039870;28;20131;-42
2023/04/03 04:54:45;;;;;;;0.52;0.50;;;;;;;;;;5042583;28;20037;-42
2023/04/03 04:57:11;;;;;;;0.82;0.70;;;;;;;;;;5035437;28;20063;-42
2023/04/03 04:59:36;;;;;;;0.40;0.40;;;;;;;;;;5045528;28;20033;-42
2023/04/03 05:02:02;;;;;;;0.70;0.70;;;;;;;;;;5045466;28;20163;-43
2023/04/03 05:04:27;;;;;;;0.63;0.60;;;;;;;;;;5044155;28;20025;-45
2023/04/03 05:06:53;;;;;;;2.28;0.60;;;;;;;;;;5037267;28;20263;-42
2023/04/03 05:09:19;;;;;;;0.82;0.50;;;;;;;;;;5045626;28;20064;-41
2023/04/03 05:11:45;;;;;;;0.95;0.60;;;;;;;;;;5035202;28;20033;-42
2023/04/03 05:14:11;;;;;;;0.65;0.65;;;;;;;;;;5037467;28;20048;-43
2023/04/03 05:16:36;;;;;;;1.40;0.43;;;;;;;;;;5036695;28;20037;-41
2023/04/03 05:19:02;;;;;;;2.05;0.55;;;;;;;;;;5037947;28;20100;-45
2023/04/03 05:21:31;;;;;;;0.30;0.30;;;;;;;;;;5046925;28;20090;-42
2023/04/03 05:23:58;;;;;;;0.80;0.60;;;;;;;;;;5046429;28;20036;-41
2023/04/03 05:26:23;;;;;;;0.65;0.40;;;;;;;;;;5057200;28;20040;-48
2023/04/03 05:28:48;;;;;;;0.75;0.55;;;;;;;;;;5057690;28;20040;-43
2023/04/03 05:31:14;;;;;;;0.57;0.57;;;;;;;;;;5064392;28;20032;-42
2023/04/03 05:33:39;;;;;;;1.23;0.60;;;;;;;;;;5058266;28;20441;-41
2023/04/03 05:36:05;;;;;;;0.50;0.50;;;;;;;;;;5057374;28;20115;-41
2023/04/03 05:38:32;;;;;;;0.52;0.50;;;;;;;;;;5059787;28;20587;-41
2023/04/03 05:40:57;;;;;;;0.57;0.57;;;;;;;;;;5060356;28;20047;-42
2023/04/03 05:43:23;;;;;;;1.92;0.80;;;;;;;;;;5062073;28;20036;-41
2023/04/03 05:45:48;;;;;;;5.38;0.70;;;;;;;;;;5051325;28;20102;-40
2023/04/03 05:48:14;;;;;;;3.75;0.52;;;;;;;;;;5042941;28;20032;-41
2023/04/03 05:50:41;;;;;;;0.90;0.75;;;;;;;;;;5045788;28;20044;-44
2023/04/03 05:53:12;;;;;;;1.52;0.50;;;;;;;;;;5063154;28;20029;-40
2023/04/03 05:55:37;;;;;;;0.40;0.40;;;;;;;;;;5062088;28;20037;-48
2023/04/03 05:58:02;;;;;;;1.45;0.73;;;;;;;;;;5060987;28;20051;-43
2023/04/03 06:00:28;;;;;;;0.75;0.75;;;;;;;;;;5060251;28;20087;-45
2023/04/03 06:02:54;;;;;;;1.63;0.80;;;;;;;;;;5063774;28;20025;-42
2023/04/03 06:05:19;;;;;;;0.75;0.75;;;;;;;;;;5058004;28;20496;-42
2023/04/03 06:07:44;;;;;;;1.52;0.65;;;;;;;;;;5048148;28;20131;-40
2023/04/03 06:10:12;;;;;;;0.90;0.50;;;;;;;;;;5041778;28;20025;-41
2023/04/03 06:12:37;;;;;;;1.20;0.52;;;;;;;;;;5044482;28;20039;-41
2023/04/03 06:15:03;;;;;;;2.53;0.60;;;;;;;;;;5045369;28;20104;-45
2023/04/03 06:17:29;;;;;;;0.73;0.60;;;;;;;;;;5046243;28;20466;-41
2023/04/03 06:19:55;;;;;;;1.40;0.70;;;;;;;;;;5043961;28;20484;-41
2023/04/03 06:22:21;;;;;;;3.03;0.30;;;;;;;;;;5044137;28;20057;-42
2023/04/03 06:24:46;;;;;;;5.88;0.90;;;;;;;;;;5045930;28;20026;-47
2023/04/03 06:27:12;;;;;;;0.50;0.50;;;;;;;;;;5035577;28;20395;-41
2023/04/03 06:29:37;;;;;;;0.50;0.50;;;;;;;;;;5037705;28;20036;-41
2023/04/03 06:32:03;;;;;;;0.40;0.40;;;;;;;;;;5037048;28;20040;-42
2023/04/03 06:34:28;;;;;;;1.35;0.60;;;;;;;;;;5036285;28;20067;-41
2023/04/03 06:36:53;;;;;;;3.05;0.47;;;;;;;;;;5039764;28;20048;-42
2023/04/03 06:39:21;;;;;;;0.50;0.50;;;;;;;;;;5038648;28;20025;-43
2023/04/03 06:41:47;;;;;;;0.60;0.60;;;;;;;;;;5042330;28;20515;-41
2023/04/03 06:44:15;;;;;;;0.50;0.50;;;;;;;;;;5040178;28;20032;-41
2023/04/03 06:46:41;;;;;;;0.63;0.63;;;;;;;;;;5039219;28;20115;-41
2023/04/03 06:49:09;;;;;;;3.35;1.10;;;;;;;;;;5042693;28;20435;-42
2023/04/03 06:51:35;;;;;;;1.65;0.77;;;;;;;;;;5043731;28;20037;-45
2023/04/03 06:54:02;;;;;;;3.10;0.95;;;;;;;;;;5039117;28;20398;-41
2023/04/03 06:56:28;;;;;;;2.00;1.10;;;;;;;;;;5043699;28;20065;-40
2023/04/03 06:58:57;;;;;;;0.60;0.60;;;;;;;;;;5041334;28;20036;-45
2023/04/03 07:01:23;;;;;;;5.80;0.70;;;;;;;;;;5032622;28;20052;-41
2023/04/03 07:03:49;;;;;;;0.88;0.60;;;;;;;;;;5037744;28;20112;-41
2023/04/03 07:06:16;;;;;;;0.70;0.70;;;;;;;;;;5042355;28;20371;-42
2023/04/03 07:08:42;;;;;;;4.38;1.00;;;;;;;;;;5041363;28;20036;-46
2023/04/03 07:11:09;;;;;;;0.95;0.77;;;;;;;;;;5041499;28;20057;-45
2023/04/03 07:13:34;;;;;;;1.67;1.17;;;;;;;;;;5000800;28;1268879;-41
2023/04/03 07:16:00;;;;;;;0.85;0.70;;;;;;;;;;5042605;28;20462;-42
2023/04/03 07:18:26;;;;;;;0.47;0.47;;;;;;;;;;5042889;28;20067;-41
2023/04/03 07:20:52;;;;;;;0.50;0.50;;;;;;;;;;5044387;28;20033;-42
2023/04/03 07:23:18;;;;;;;0.75;0.50;;;;;;;;;;5039653;28;20029;-41
2023/04/03 07:25:49;;;;;;;0.60;0.60;;;;;;;;;;5043246;28;20707;-42
2023/04/03 07:28:16;;;;;;;0.93;0.60;;;;;;;;;;5039925;28;20025;-42
2023/04/03 07:30:46;;;;;;;2.83;0.70;;;;;;;;;;5039992;28;20051;-41
2023/04/03 07:33:13;;;;;;;0.50;0.50;;;;;;;;;;5043662;28;20086;-41
2023/04/03 07:35:39;;;;;;;1.98;0.60;;;;;;;;;;5045883;28;20061;-41
2023/04/03 07:38:05;;;;;;;3.35;0.60;;;;;;;;;;5042936;28;21509;-41
2023/04/03 07:40:31;;;;;;;0.65;0.50;;;;;;;;;;5045067;28;20041;-43
2023/04/03 07:42:56;;;;;;;1.10;0.50;;;;;;;;;;5038912;28;20044;-41
2023/04/03 07:45:22;;;;;;;2.20;0.55;;;;;;;;;;5039976;28;20060;-42
2023/04/03 07:47:48;;;;;;;0.30;0.30;;;;;;;;;;5045026;28;20030;-42
2023/04/03 07:50:13;;;;;;;0.50;0.50;;;;;;;;;;5044894;28;20497;-43
2023/04/03 07:52:39;;;;;;;0.47;0.47;;;;;;;;;;5040588;28;20057;-42
2023/04/03 07:55:05;;;;;;;0.73;0.60;;;;;;;;;;5038106;28;20036;-45
2023/04/03 07:57:30;;;;;;;0.70;0.50;;;;;;;;;;5040703;28;20021;-43
2023/04/03 07:59:56;;;;;;;1.38;0.50;;;;;;;;;;5045249;28;20025;-42
2023/04/03 08:02:21;;;;;;;2.00;0.40;;;;;;;;;;5039664;28;20178;-41
2023/04/03 08:04:47;;;;;;;0.47;0.47;;;;;;;;;;5043069;28;20390;-42
2023/04/03 08:07:12;;;;;;;0.40;0.40;;;;;;;;;;5039528;28;20037;-44
2023/04/03 08:09:37;;;;;;;0.55;0.40;;;;;;;;;;5037186;28;20400;-44
2023/04/03 08:12:03;;;;;;;0.52;0.52;;;;;;;;;;5038822;28;20049;-41
2023/04/03 08:14:31;;;;;;;0.32;0.30;;;;;;;;;;5041569;28;20804;-42
2023/04/03 08:16:57;;;;;;;0.32;0.32;;;;;;;;;;5041247;28;20067;-41
2023/04/03 08:19:22;;;;;;;0.32;0.20;;;;;;;;;;5040007;28;20489;-42
2023/04/03 08:21:47;;;;;;;0.45;0.45;;;;;;;;;;5041861;28;20057;-41
2023/04/03 08:24:13;;;;;;;0.47;0.47;;;;;;;;;;5032316;28;20508;-41
2023/04/03 08:26:38;;;;;;;0.40;0.40;;;;;;;;;;5035948;28;20436;-41
2023/04/03 08:29:04;;;;;;;0.95;0.40;;;;;;;;;;5042258;28;20025;-48
2023/04/03 08:31:29;;;;;;;0.88;0.70;;;;;;;;;;5039281;28;20421;-42
2023/04/03 08:33:56;;;;;;;0.32;0.32;;;;;;;;;;5040158;28;20116;-43
2023/04/03 08:36:27;;;;;;;0.80;0.30;;;;;;;;;;5041294;28;20044;-41
2023/04/03 08:38:54;;;;;;;0.30;0.30;;;;;;;;;;5042648;28;20439;-43
2023/04/03 08:41:33;;;;;;;4.35;0.47;;;;;;;;;;5036622;28;20053;-41
2023/04/03 08:44:17;;;;;;;0.40;0.40;;;;;;;;;;5040555;28;20053;-46
2023/04/03 08:47:11;;;;;;;0.80;0.65;;;;;;;;;;5043053;28;20037;-42
2023/04/03 08:49:47;;;;;;;6.63;0.73;;;;;;;;;;5040619;28;20029;-42
2023/04/03 08:52:17;;;;;;;0.85;0.45;;;;;;;;;;5039029;28;20386;-42
2023/04/03 08:54:50;;;;;;;4.47;0.50;;;;;;;;;;5039306;28;20029;-44
2023/04/03 08:57:17;;;;;;;0.40;0.40;;;;;;;;;;5041575;28;20490;-44
2023/04/03 08:59:43;;;;;;;0.43;0.35;;;;;;;;;;5041794;28;20125;-42
2023/04/03 09:02:26;;;;;;;0.40;0.40;;;;;;;;;;5042332;28;20569;-41
2023/04/03 09:04:52;;;;;;;1.45;0.70;;;;;;;;;;5045856;28;20504;-42
2023/04/03 09:07:41;;;;;;;1.60;0.32;;;;;;;;;;5046005;28;20037;-41
2023/04/03 09:10:12;;;;;;;1.70;0.50;;;;;;;;;;5044303;28;20029;-42
2023/04/03 09:12:41;;;;;;;1.63;0.52;;;;;;;;;;5057324;28;20134;-41
2023/04/03 09:15:17;;;;;;;1.08;0.32;;;;;;;;;;5059851;28;20028;-41
2023/04/03 09:18:10;;;;;;;10.50;0.65;;;;;;;;;;5051596;28;20029;-44
2023/04/03 09:20:48;;;;;;;0.22;0.22;;;;;;;;;;5064141;28;20057;-42
2023/04/03 09:23:20;;;;;;;0.45;0.45;;;;;;;;;;5061699;28;20064;-42
2023/04/03 09:25:46;;;;;;;2.15;0.30;;;;;;;;;;5058611;28;20071;-43
2023/04/03 09:28:12;;;;;;;0.40;0.40;;;;;;;;;;5059274;28;20021;-42
2023/04/03 09:30:37;;;;;;;1.08;0.30;;;;;;;;;;5055426;28;20114;-41
2023/04/03 09:33:05;;;;;;;2.47;0.52;;;;;;;;;;5054380;28;20542;-42
2023/04/03 09:35:34;;;;;;;0.47;0.30;;;;;;;;;;5060830;28;20068;-42
2023/04/03 09:38:02;;;;;;;0.60;0.60;;;;;;;;;;5057892;28;20107;-43
2023/04/03 09:40:42;;;;;;;0.73;0.30;;;;;;;;;;5060324;28;20044;-42
2023/04/03 09:43:16;;;;;;;1.40;0.50;;;;;;;;;;5057310;28;20038;-42
2023/04/03 09:45:42;;;;;;;6.13;0.47;;;;;;;;;;5055061;28;20071;-42
2023/04/03 09:48:17;;;;;;;4.38;0.28;;;;;;;;;;5063694;28;20024;-42
2023/04/03 09:51:04;;;;;;;2.80;0.40;;;;;;;;;;5056076;28;20040;-44
2023/04/03 09:53:35;;;;;;;1.60;1.33;;;;;;;;;;5060281;28;20535;-42
2023/04/03 09:56:17;;;;;;;1.50;0.45;;;;;;;;;;5060596;28;20485;-42
2023/04/03 09:58:48;;;;;;;0.28;0.25;;;;;;;;;;5058356;28;20032;-42
2023/04/03 10:01:57;;;;;;;0.65;0.35;;;;;;;;;;5060780;28;20082;-42
2023/04/03 10:04:23;;;;;;;0.40;0.40;;;;;;;;;;5042136;28;20062;-42
2023/04/03 10:06:51;;;;;;;0.32;0.32;;;;;;;;;;5044766;28;20497;-43
2023/04/03 10:09:25;;;;;;;1.30;0.57;;;;;;;;;;5042684;28;20025;-40
2023/04/03 10:12:06;;;;;;;1.75;0.50;;;;;;;;;;5044911;28;20525;-42
2023/04/03 10:14:33;;;;;;;0.35;0.35;;;;;;;;;;5043980;28;20571;-43
2023/04/03 10:17:23;;;;;;;1.40;0.40;;;;;;;;;;5046263;28;20129;-42
2023/04/03 10:19:56;;;;;;;0.38;0.38;;;;;;;;;;5044074;28;20513;-42
2023/04/03 10:22:24;;;;;;;0.30;0.20;;;;;;;;;;5044756;28;20044;-44
2023/04/03 10:25:05;;;;;;;1.67;0.47;;;;;;;;;;5044078;28;20087;-42
2023/04/03 10:27:49;;;;;;;2.83;0.37;;;;;;;;;;5050739;28;20033;-42
2023/04/03 10:30:39;;;;;;;1.65;0.40;;;;;;;;;;5046099;28;20589;-42
2023/04/03 10:33:19;;;;;;;0.20;0.20;;;;;;;;;;5049115;28;20116;-51
2023/04/03 10:35:53;;;;;;;0.90;0.47;;;;;;;;;;5044250;28;20045;-42
2023/04/03 10:38:41;;;;;;;1.10;0.50;;;;;;;;;;5049614;28;20244;-42
2023/04/03 10:41:26;;;;;;;0.40;0.30;;;;;;;;;;5052943;28;20128;-43
2023/04/03 10:44:12;;;;;;;0.40;0.40;;;;;;;;;;5044968;28;20594;-46
2023/04/03 10:46:40;;;;;;;0.28;0.28;;;;;;;;;;5039791;28;20037;-47
2023/04/03 10:49:30;;;;;;;1.08;0.30;;;;;;;;;;5046373;28;20035;-42
2023/04/03 10:52:06;;;;;;;0.55;0.30;;;;;;;;;;5040596;28;20452;-49
2023/04/03 10:55:07;;;;;;;0.30;0.30;;;;;;;;;;5044174;28;20086;-44
2023/04/03 10:57:32;;;;;;;0.30;0.30;;;;;;;;;;5058319;28;20052;-43
2023/04/03 11:00:02;;;;;;;0.57;0.50;;;;;;;;;;5060006;28;20389;-42
2023/04/03 11:02:35;;;;;;;0.40;0.40;;;;;;;;;;5059250;28;20090;-42
2023/04/03 11:05:27;;;;;;;0.75;0.40;;;;;;;;;;5054546;28;20085;-46
2023/04/03 11:07:55;;;;;;;0.40;0.40;;;;;;;;;;5034304;28;20079;-42
2023/04/03 11:10:35;;;;;;;3.63;0.50;;;;;;;;;;5038606;28;20102;-46
2023/04/03 11:13:15;;;;;;;0.60;0.43;;;;;;;;;;5035014;28;20048;-42
2023/04/03 11:15:42;;;;;;;1.48;0.50;;;;;;;;;;5040722;28;20041;-42
2023/04/03 11:18:17;;;;;;;0.80;0.47;;;;;;;;;;5043108;28;20024;-45
2023/04/03 11:20:50;;;;;;;0.68;0.38;;;;;;;;;;5047131;28;20044;-46
2023/04/03 11:23:25;;;;;;;0.63;0.20;;;;;;;;;;5046199;28;20029;-43
2023/04/03 11:25:54;;;;;;;0.40;0.40;;;;;;;;;;5042199;28;20067;-42
2023/04/03 11:28:20;;;;;;;0.40;0.40;;;;;;;;;;5039491;28;20032;-42
2023/04/03 11:31:28;;;;;;;2.55;0.30;;;;;;;;;;5036079;28;20040;-43
2023/04/03 11:34:27;;;;;;;8.27;0.95;;;;;;;;;;5050172;28;20496;-45
2023/04/03 11:37:01;;;;;;;0.20;0.20;;;;;;;;;;5045832;28;20041;-48
2023/04/03 11:39:33;;;;;;;0.47;0.40;;;;;;;;;;5042999;28;20063;-44
2023/04/03 11:42:26;;;;;;;0.47;0.17;;;;;;;;;;5046512;28;20044;-46
2023/04/03 11:45:24;;;;;;;0.20;0.20;;;;;;;;;;5047759;28;20037;-48
2023/04/03 11:48:20;;;;;;;2.38;0.38;;;;;;;;;;5057727;28;20060;-46
2023/04/03 11:50:47;;;;;;;1.90;0.30;;;;;;;;;;5063358;28;20044;-42
2023/04/03 11:53:12;;;;;;;2.20;0.40;;;;;;;;;;5056030;28;20039;-42
2023/04/03 11:55:51;;;;;;;1.92;0.40;;;;;;;;;;5059417;28;20131;-45
2023/04/03 11:58:19;;;;;;;1.80;0.43;;;;;;;;;;5058964;28;20107;-48
2023/04/03 12:00:47;;;;;;;0.22;0.22;;;;;;;;;;5064634;28;20431;-47
2023/04/03 12:03:25;;;;;;;0.30;0.30;;;;;;;;;;5061586;28;20733;-45
2023/04/03 12:06:11;;;;;;;3.25;0.40;;;;;;;;;;5058485;28;20036;-41
2023/04/03 12:08:39;;;;;;;2.17;0.52;;;;;;;;;;5043609;28;20098;-42
2023/04/03 12:11:13;;;;;;;2.00;0.60;;;;;;;;;;5040040;28;20079;-44
2023/04/03 12:13:56;;;;;;;9.57;0.60;;;;;;;;;;5039863;28;20516;-48
2023/04/03 12:16:26;;;;;;;0.40;0.40;;;;;;;;;;5043694;28;20044;-41
2023/04/03 12:18:52;;;;;;;2.17;0.70;;;;;;;;;;5040918;28;20430;-41
2023/04/03 12:21:21;;;;;;;0.40;0.40;;;;;;;;;;5041795;28;20051;-41
2023/04/03 12:23:57;;;;;;;2.75;0.68;;;;;;;;;;5040496;28;20045;-41
2023/04/03 12:26:26;;;;;;;0.65;0.38;;;;;;;;;;5039656;28;20036;-42
2023/04/03 12:28:53;;;;;;;4.50;0.50;;;;;;;;;;5037905;28;20434;-42
2023/04/03 12:31:20;;;;;;;1.02;0.40;;;;;;;;;;5039831;28;20120;-41
2023/04/03 12:34:10;;;;;;;1.35;0.40;;;;;;;;;;5042568;28;20029;-42
2023/04/03 12:36:48;;;;;;;1.30;0.45;;;;;;;;;;5023817;28;20064;-43
2023/04/03 12:39:41;;;;;;;5.03;0.50;;;;;;;;;;5041958;28;20124;-42
2023/04/03 12:42:21;;;;;;;2.47;0.40;;;;;;;;;;5037912;28;20040;-42
2023/04/03 12:45:10;;;;;;;7.03;0.65;;;;;;;;;;5044659;28;20033;-42
2023/04/03 12:47:37;;;;;;;0.88;0.68;;;;;;;;;;5056629;28;20048;-42
2023/04/03 12:50:15;;;;;;;2.67;0.80;;;;;;;;;;5062737;28;20028;-42
2023/04/03 12:52:57;;;;;;;4.22;0.55;;;;;;;;;;5040396;28;20033;-42
2023/04/03 12:55:23;;;;;;;0.63;0.52;;;;;;;;;;5040087;28;20055;-41
2023/04/03 12:57:48;;;;;;;1.42;0.65;;;;;;;;;;5060618;28;20024;-43
2023/04/03 13:00:34;;;;;;;2.60;0.50;;;;;;;;;;5061541;28;20051;-42
2023/04/03 13:03:02;;;;;;;0.95;0.80;;;;;;;;;;5038515;28;20405;-42
2023/04/03 13:05:28;;;;;;;3.20;0.80;;;;;;;;;;5037231;28;20037;-45
2023/04/03 13:08:04;;;;;;;2.40;0.60;;;;;;;;;;5041803;28;20025;-44
2023/04/03 13:10:31;;;;;;;14.00;0.98;;;;;;;;;;5039074;28;20060;-44
2023/04/03 13:13:06;;;;;;;7.00;0.60;;;;;;;;;;5036943;28;20053;-42
2023/04/03 13:15:41;;;;;;;4.05;0.70;;;;;;;;;;5042787;28;20443;-42
2023/04/03 13:18:25;;;;;;;1.30;0.75;;;;;;;;;;5036566;28;20042;-41
2023/04/03 13:20:51;;;;;;;3.92;0.60;;;;;;;;;;5040787;28;20040;-41
2023/04/03 13:23:18;;;;;;;0.75;0.50;;;;;;;;;;5038758;28;20034;-42
2023/04/03 13:25:45;;;;;;;3.03;1.42;;;;;;;;;;5042605;28;20049;-42
2023/04/03 13:28:14;;;;;;;2.75;0.90;;;;;;;;;;5042653;28;20048;-42
2023/04/03 13:30:53;;;;;;;4.93;0.63;;;;;;;;;;5040998;28;20045;-42
2023/04/03 13:33:22;;;;;;;5.05;0.95;;;;;;;;;;5040970;28;20025;-41
2023/04/03 13:36:03;;;;;;;1.42;0.73;;;;;;;;;;5041203;28;20473;-43
2023/04/03 13:38:36;;;;;;;1.40;0.70;;;;;;;;;;5039707;28;20036;-43
2023/04/03 13:41:05;;;;;;;8.20;0.80;;;;;;;;;;5045963;28;20049;-42
2023/04/03 13:43:34;;;;;;;1.75;0.70;;;;;;;;;;5045021;28;20082;-48
2023/04/03 13:46:06;;;;;;;5.78;1.75;;;;;;;;;;5040404;28;20099;-46
2023/04/03 13:48:36;;;;;;;5.05;0.70;;;;;;;;;;5045177;28;20056;-42
2023/04/03 13:51:15;;;;;;;4.43;0.73;;;;;;;;;;5039169;28;20052;-41
2023/04/03 13:53:47;;;;;;;0.77;0.77;;;;;;;;;;5040322;28;20032;-41
2023/04/03 13:56:21;;;;;;;1.42;0.88;;;;;;;;;;5041820;28;20048;-42
2023/04/03 13:59:05;;;;;;;0.90;0.90;;;;;;;;;;5043739;28;20037;-42
2023/04/03 14:01:53;;;;;;;1.75;0.75;;;;;;;;;;5047409;28;20041;-42
2023/04/03 14:04:24;;;;;;;1.70;1.00;;;;;;;;;;5030811;28;20406;-41
2023/04/03 14:06:51;;;;;;;1.85;0.63;;;;;;;;;;5039444;28;20497;-45
2023/04/03 14:09:17;;;;;;;3.00;0.88;;;;;;;;;;5040430;28;20377;-42
2023/04/03 14:11:44;;;;;;;2.55;0.93;;;;;;;;;;5040269;28;20494;-42
2023/04/03 14:14:18;;;;;;;2.83;0.90;;;;;;;;;;5035429;28;20058;-45
2023/04/03 14:16:50;;;;;;;1.20;0.90;;;;;;;;;;5040632;28;20029;-43
2023/04/03 14:19:31;;;;;;;3.50;1.00;;;;;;;;;;5039692;28;20025;-42
2023/04/03 14:21:58;;;;;;;4.33;0.67;;;;;;;;;;5036693;28;20499;-43
2023/04/03 14:24:24;;;;;;;0.93;0.60;;;;;;;;;;5039051;28;20478;-42
2023/04/03 14:26:52;;;;;;;2.33;0.70;;;;;;;;;;5038339;28;20038;-42
2023/04/03 14:29:18;;;;;;;1.50;0.73;;;;;;;;;;5042622;28;20049;-41
2023/04/03 14:31:45;;;;;;;3.17;0.90;;;;;;;;;;5046782;28;20513;-44
2023/04/03 14:34:11;;;;;;;1.63;0.80;;;;;;;;;;5043017;28;20025;-41
2023/04/03 14:36:38;;;;;;;0.65;0.65;;;;;;;;;;5039729;28;20033;-42
2023/04/03 14:39:05;;;;;;;3.80;0.80;;;;;;;;;;5039550;28;20277;-42
2023/04/03 14:41:30;;;;;;;4.32;1.25;;;;;;;;;;5041707;28;20033;-41
2023/04/03 14:43:56;;;;;;;3.90;1.05;;;;;;;;;;5045107;28;21003;-42
2023/04/03 14:46:42;;;;;;;3.25;0.95;;;;;;;;;;5039915;28;20052;-42
2023/04/03 14:49:20;;;;;;;2.58;1.10;;;;;;;;;;5046263;28;20132;-43
2023/04/03 14:51:45;;;;;;;2.40;0.75;;;;;;;;;;5059096;28;20086;-41
2023/04/03 14:54:18;;;;;;;5.45;1.20;;;;;;;;;;5063507;28;20459;-42
2023/04/03 14:56:44;;;;;;;6.45;1.50;;;;;;;;;;5047828;28;20485;-42
2023/04/03 14:59:12;;;;;;;1.55;0.93;;;;;;;;;;5046446;28;20033;-42